createdAt,value
2018-04-11T00:00:56.427Z,69.18
2018-04-11T00:02:06.574Z,69.37
2018-04-11T00:03:16.758Z,69.27
2018-04-11T00:04:26.914Z,69.56
2018-04-11T00:05:37.072Z,69.27
2018-04-11T00:06:47.264Z,69.76
2018-04-11T00:07:57.407Z,69.66
2018-04-11T00:09:07.565Z,69.56
2018-04-11T00:10:17.716Z,69.27
2018-04-11T00:11:27.881Z,69.37
2018-04-11T00:12:38.157Z,69.76
2018-04-11T00:13:48.443Z,69.47
2018-04-11T00:14:58.322Z,69.95
2018-04-11T00:16:08.492Z,69.66
2018-04-11T00:17:18.676Z,70.04
2018-04-11T00:18:28.836Z,69.95
2018-04-11T00:19:39.000Z,69.95
2018-04-11T00:20:49.254Z,70.42
2018-04-11T00:21:59.425Z,70.04
2018-04-11T00:23:09.695Z,70.23
2018-04-11T00:24:19.897Z,70.14
2018-04-11T00:25:30.090Z,69.95
2018-04-11T00:26:40.336Z,70.23
2018-04-11T00:27:50.539Z,69.85
2018-04-11T00:29:00.475Z,69.85
2018-04-11T00:30:10.640Z,69.76
2018-04-11T00:31:20.784Z,70.33
2018-04-11T00:32:31.007Z,69.95
2018-04-11T00:33:41.167Z,70.14
2018-04-11T00:34:51.351Z,69.66
2018-04-11T00:36:01.718Z,69.95
2018-04-11T00:37:11.965Z,70.23
2018-04-11T00:38:22.175Z,69.76
2018-04-11T00:39:32.375Z,70.71
2018-04-11T00:40:42.620Z,70.61
2018-04-11T00:41:52.835Z,70.33
2018-04-11T00:43:03.006Z,70.52
2018-04-11T00:44:13.220Z,70.81
2018-04-11T00:45:23.422Z,71
2018-04-11T00:46:34.624Z,71.09
2018-04-11T00:47:44.504Z,71
2018-04-11T00:48:54.657Z,71.19
2018-04-11T00:50:04.887Z,71.82
2018-04-11T00:51:15.038Z,71.25
2018-04-11T00:52:24.919Z,71.53
2018-04-11T00:53:35.309Z,71.72
2018-04-11T00:54:45.521Z,71.25
2018-04-11T00:55:55.659Z,71.82
2018-04-11T00:57:06.079Z,71.82
2018-04-11T00:58:16.344Z,71.72
2018-04-11T00:59:26.500Z,71.44
2018-04-11T01:00:36.677Z,71.92
2018-04-11T01:01:46.907Z,71.92
2018-04-11T01:02:57.080Z,72.3
2018-04-11T01:04:07.093Z,72.39
2018-04-11T01:05:17.272Z,72.2
2018-04-11T01:06:27.448Z,72.39
2018-04-11T01:07:37.620Z,72.2
2018-04-11T01:08:47.773Z,72.2
2018-04-11T01:09:57.938Z,72.2
2018-04-11T01:11:08.294Z,72.2
2018-04-11T01:12:18.518Z,72.2
2018-04-11T01:13:28.734Z,72.39
2018-04-11T01:14:39.060Z,72.58
2018-04-11T01:15:49.297Z,72.3
2018-04-11T01:16:59.461Z,72.68
2018-04-11T01:18:09.618Z,72.39
2018-04-11T01:19:19.794Z,72.49
2018-04-11T01:20:29.993Z,72.58
2018-04-11T01:21:40.273Z,72.78
2018-04-11T01:22:50.532Z,72.97
2018-04-11T01:24:00.703Z,72.87
2018-04-11T01:25:11.026Z,73.07
2018-04-11T01:26:21.224Z,72.68
2018-04-11T01:27:31.388Z,72.2
2018-04-11T01:28:41.656Z,72.68
2018-04-11T01:29:51.871Z,72.58
2018-04-11T01:31:02.060Z,72.58
2018-04-11T01:32:12.270Z,72.39
2018-04-11T01:33:22.479Z,72.68
2018-04-11T01:34:32.740Z,72.49
2018-04-11T01:35:42.927Z,72.3
2018-04-11T01:36:53.266Z,72.49
2018-04-11T01:38:03.457Z,72.3
2018-04-11T01:39:13.662Z,72.2
2018-04-11T01:40:23.930Z,72.11
2018-04-11T01:41:34.059Z,72.2
2018-04-11T01:42:44.260Z,72.2
2018-04-11T01:43:54.530Z,72.33
2018-04-11T01:45:04.758Z,72.33
2018-04-11T01:46:15.077Z,71.95
2018-04-11T01:47:25.250Z,71.95
2018-04-11T01:48:35.407Z,72.43
2018-04-11T01:49:45.668Z,72.58
2018-04-11T01:50:55.847Z,72.3
2018-04-11T01:52:05.776Z,72.68
2018-04-11T01:53:15.905Z,72.68
2018-04-11T01:54:27.176Z,72.3
2018-04-11T01:55:37.305Z,72.39
2018-04-11T01:56:47.476Z,72.3
2018-04-11T01:57:57.637Z,72.49
2018-04-11T01:59:07.863Z,72.3
2018-04-11T02:00:18.102Z,72.49
2018-04-11T02:01:28.313Z,72.68
2018-04-11T02:02:38.450Z,72.68
2018-04-11T02:03:48.679Z,72.68
2018-04-11T02:04:58.303Z,72.2
2018-04-11T02:06:08.430Z,73.07
2018-04-11T02:07:18.595Z,72.39
2018-04-11T02:08:28.785Z,73.07
2018-04-11T02:09:38.770Z,72.87
2018-04-11T02:10:49.018Z,72.39
2018-04-11T02:11:59.155Z,72.78
2018-04-11T02:13:09.573Z,72.2
2018-04-11T02:14:19.422Z,72.39
2018-04-11T02:15:29.607Z,72.58
2018-04-11T02:16:39.522Z,72.49
2018-04-11T02:17:49.681Z,72.72
2018-04-11T02:18:59.832Z,72.62
2018-04-11T02:20:09.981Z,72.53
2018-04-11T02:21:20.293Z,73.07
2018-04-11T02:22:30.436Z,73.16
2018-04-11T02:23:40.607Z,72.87
2018-04-11T02:24:50.891Z,72.78
2018-04-11T02:26:01.025Z,72.78
2018-04-11T02:27:11.189Z,73.25
2018-04-11T02:28:21.378Z,73.25
2018-04-11T02:29:31.550Z,73.25
2018-04-11T02:30:41.713Z,73.16
2018-04-11T02:31:51.860Z,73.44
2018-04-11T02:33:02.101Z,73.35
2018-04-11T02:34:12.315Z,73.44
2018-04-11T02:35:22.462Z,73.54
2018-04-11T02:36:32.338Z,73.35
2018-04-11T02:37:42.266Z,73.25
2018-04-11T02:38:52.453Z,73.44
2018-04-11T02:40:02.630Z,73.63
2018-04-11T02:41:12.785Z,73.44
2018-04-11T02:42:22.791Z,73.63
2018-04-11T02:43:32.998Z,73.07
2018-04-11T02:44:43.181Z,73.07
2018-04-11T02:45:53.491Z,73.54
2018-04-11T02:47:03.691Z,73.83
2018-04-11T02:48:13.840Z,74.11
2018-04-11T02:49:23.460Z,73.73
2018-04-11T02:50:33.610Z,73.73
2018-04-11T02:51:43.756Z,73.83
2018-04-11T02:52:53.897Z,74.21
2018-04-11T02:54:03.798Z,74.3
2018-04-11T02:55:14.134Z,73.92
2018-04-11T02:56:24.546Z,74.49
2018-04-11T02:57:34.706Z,74.4
2018-04-11T02:58:44.845Z,74.3
2018-04-11T02:59:55.066Z,74.78
2018-04-11T03:01:05.288Z,74.49
2018-04-11T03:02:15.537Z,74.11
2018-04-11T03:03:25.706Z,74.4
2018-04-11T03:04:35.327Z,74.59
2018-04-11T03:05:45.469Z,74.21
2018-04-11T03:06:55.611Z,74.4
2018-04-11T03:08:05.754Z,74.49
2018-04-11T03:09:15.906Z,74.59
2018-04-11T03:10:26.192Z,74.49
2018-04-11T03:11:36.383Z,74.11
2018-04-11T03:12:46.528Z,74.21
2018-04-11T03:13:56.818Z,74.59
2018-04-11T03:15:07.060Z,74.49
2018-04-11T03:16:16.949Z,74.59
2018-04-11T03:17:27.081Z,74.59
2018-04-11T03:18:37.211Z,74.69
2018-04-11T03:19:47.341Z,74.59
2018-04-11T03:20:57.512Z,74.49
2018-04-11T03:22:07.726Z,74.4
2018-04-11T03:23:17.093Z,74.78
2018-04-11T03:24:26.823Z,74.69
2018-04-11T03:25:37.027Z,74.59
2018-04-11T03:26:47.347Z,74.78
2018-04-11T03:27:57.540Z,75.16
2018-04-11T03:29:07.696Z,75.64
2018-04-11T03:30:17.946Z,75.16
2018-04-11T03:31:28.118Z,75.07
2018-04-11T03:32:38.302Z,75.64
2018-04-11T03:33:48.532Z,75.64
2018-04-11T03:34:58.734Z,75.54
2018-04-11T03:36:08.974Z,75.54
2018-04-11T03:37:19.134Z,75.45
2018-04-11T03:38:29.524Z,75.54
2018-04-11T03:39:39.742Z,75.35
2018-04-11T03:40:49.904Z,75.35
2018-04-11T03:42:00.081Z,75.64
2018-04-11T03:43:10.421Z,75.35
2018-04-11T03:44:20.563Z,75.45
2018-04-11T03:45:30.713Z,75.83
2018-04-11T03:46:41.086Z,75.54
2018-04-11T03:47:51.352Z,75.64
2018-04-11T03:49:01.493Z,75.93
2018-04-11T03:50:11.155Z,75.64
2018-04-11T03:51:21.331Z,75.74
2018-04-11T03:52:31.452Z,76.03
2018-04-11T03:53:41.422Z,76.03
2018-04-11T03:54:51.668Z,76.03
2018-04-11T03:56:01.933Z,75.74
2018-04-11T03:57:12.071Z,76.12
2018-04-11T03:58:22.249Z,76.21
2018-04-11T03:59:32.392Z,76.4
2018-04-11T04:00:42.622Z,76.12
2018-04-11T04:01:52.879Z,76.21
2018-04-11T04:03:03.169Z,76.18
2018-04-11T04:04:13.059Z,76.75
2018-04-11T04:05:23.238Z,76.69
2018-04-11T04:06:33.430Z,76.6
2018-04-11T04:07:43.381Z,76.65
2018-04-11T04:08:53.679Z,76.98
2018-04-11T04:10:03.899Z,76.79
2018-04-11T04:11:14.058Z,76.6
2018-04-11T04:12:24.223Z,76.37
2018-04-11T04:13:34.397Z,76.37
2018-04-11T04:14:44.589Z,76.94
2018-04-11T04:15:54.716Z,76.75
2018-04-11T04:17:04.841Z,76.31
2018-04-11T04:18:14.731Z,76.56
2018-04-11T04:19:24.878Z,76.79
2018-04-11T04:20:35.008Z,76.79
2018-04-11T04:21:45.220Z,76.6
2018-04-11T04:22:55.422Z,76.69
2018-04-11T04:24:05.560Z,76.88
2018-04-11T04:25:15.704Z,76.69
2018-04-11T04:26:25.830Z,76.6
2018-04-11T04:27:35.963Z,76.79
2018-04-11T04:28:46.112Z,76.6
2018-04-11T04:29:56.308Z,76.79
2018-04-11T04:31:06.448Z,76.88
2018-04-11T04:32:16.644Z,76.79
2018-04-11T04:33:26.891Z,76.6
2018-04-11T04:34:37.068Z,76.98
2018-04-11T04:35:47.204Z,76.79
2018-04-11T04:36:57.336Z,76.88
2018-04-11T04:38:07.514Z,77.08
2018-04-11T04:39:17.676Z,77.17
2018-04-11T04:40:27.816Z,77.26
2018-04-11T04:41:38.004Z,77.26
2018-04-11T04:42:48.273Z,77.26
2018-04-11T04:43:58.524Z,77.45
2018-04-11T04:45:08.721Z,77.45
2018-04-11T04:46:18.920Z,77.45
2018-04-11T04:47:28.807Z,77.65
2018-04-11T04:48:38.980Z,77.26
2018-04-11T04:49:49.163Z,77.36
2018-04-11T04:50:59.400Z,77.45
2018-04-11T04:52:09.630Z,77.36
2018-04-11T04:53:19.841Z,77.36
2018-04-11T04:54:29.999Z,77.65
2018-04-11T04:55:40.237Z,77.17
2018-04-11T04:56:50.443Z,77.74
2018-04-11T04:58:00.590Z,77.74
2018-04-11T04:59:10.489Z,77.74
2018-04-11T05:00:20.657Z,77.94
2018-04-11T05:01:30.811Z,78.03
2018-04-11T05:02:41.038Z,78.03
2018-04-11T05:03:51.003Z,78.03
2018-04-11T05:05:01.134Z,78.22
2018-04-11T05:06:11.043Z,78.31
2018-04-11T05:07:21.212Z,78.22
2018-04-11T05:08:30.862Z,78.41
2018-04-11T05:09:40.485Z,78.22
2018-04-11T05:10:50.821Z,78.51
2018-04-11T05:12:00.956Z,78.51
2018-04-11T05:13:11.132Z,78.45
2018-04-11T05:14:21.299Z,78.89
2018-04-11T05:15:31.538Z,78.79
2018-04-11T05:16:41.710Z,78.7
2018-04-11T05:17:51.832Z,79.27
2018-04-11T05:19:02.199Z,79.36
2018-04-11T05:20:12.364Z,78.89
2018-04-11T05:21:22.595Z,79.36
2018-04-11T05:22:32.911Z,79.08
2018-04-11T05:23:43.169Z,79.46
2018-04-11T05:24:53.354Z,79.08
2018-04-11T05:26:03.242Z,79.36
2018-04-11T05:27:13.456Z,79.75
2018-04-11T05:28:23.843Z,80.13
2018-04-11T05:29:33.984Z,80.32
2018-04-11T05:30:44.162Z,80.32
2018-04-11T05:31:54.337Z,80.32
2018-04-11T05:33:04.494Z,79.94
2018-04-11T05:34:14.623Z,80.13
2018-04-11T05:35:24.849Z,79.94
2018-04-11T05:36:35.058Z,80.32
2018-04-11T05:37:45.237Z,80.61
2018-04-11T05:38:55.512Z,80.32
2018-04-11T05:40:05.796Z,80.8
2018-04-11T05:41:15.989Z,80.99
2018-04-11T05:42:26.188Z,80.8
2018-04-11T05:43:36.364Z,80.8
2018-04-11T05:44:46.593Z,80.99
2018-04-11T05:45:56.754Z,81.47
2018-04-11T05:47:06.622Z,81.18
2018-04-11T05:48:16.545Z,81.27
2018-04-11T05:49:26.686Z,80.8
2018-04-11T05:50:36.832Z,80.61
2018-04-11T05:51:46.978Z,80.7
2018-04-11T05:52:56.893Z,80.61
2018-04-11T05:54:06.845Z,80.7
2018-04-11T05:55:17.151Z,81.09
2018-04-11T05:56:27.355Z,81.37
2018-04-11T05:57:37.530Z,81.66
2018-04-11T05:58:47.789Z,81.85
2018-04-11T05:59:57.972Z,82.32
2018-04-11T06:01:08.193Z,82.71
2018-04-11T06:02:18.182Z,82.42
2018-04-11T06:03:27.722Z,82.52
2018-04-11T06:04:37.911Z,82.71
2018-04-11T06:05:48.070Z,82.52
2018-04-11T06:06:58.416Z,83.57
2018-04-11T06:08:08.561Z,83.38
2018-04-11T06:09:18.715Z,83.28
2018-04-11T06:10:28.935Z,83.57
2018-04-11T06:11:39.155Z,83.57
2018-04-11T06:12:49.482Z,83.57
2018-04-11T06:13:59.660Z,83.38
2018-04-11T06:15:09.834Z,83.28
2018-04-11T06:16:19.969Z,84.14
2018-04-11T06:17:30.122Z,84.05
2018-04-11T06:18:40.274Z,84.14
2018-04-11T06:19:50.497Z,83.86
2018-04-11T06:21:00.652Z,83.76
2018-04-11T06:22:10.794Z,84.05
2018-04-11T06:23:20.949Z,83.67
2018-04-11T06:24:31.184Z,84.05
2018-04-11T06:25:41.451Z,83.67
2018-04-11T06:26:51.774Z,84.05
2018-04-11T06:28:02.005Z,84.23
2018-04-11T06:29:12.281Z,83.57
2018-04-11T06:30:22.471Z,83.38
2018-04-11T06:31:32.662Z,83.57
2018-04-11T06:32:42.864Z,83.95
2018-04-11T06:33:53.041Z,83.67
2018-04-11T06:35:03.419Z,84.14
2018-04-11T06:36:13.675Z,84.23
2018-04-11T06:37:23.845Z,83.57
2018-04-11T06:38:33.996Z,83.57
2018-04-11T06:39:43.968Z,83.67
2018-04-11T06:40:54.109Z,84.14
2018-04-11T06:42:04.315Z,83.47
2018-04-11T06:43:14.589Z,83.28
2018-04-11T06:44:24.776Z,83.67
2018-04-11T06:45:34.916Z,83.47
2018-04-11T06:46:45.102Z,83.28
2018-04-11T06:47:55.302Z,83.51
2018-04-11T06:49:05.488Z,83.04
2018-04-11T06:50:15.653Z,83.7
2018-04-11T06:51:25.857Z,83.47
2018-04-11T06:52:36.066Z,82.94
2018-04-11T06:53:46.233Z,82.75
2018-04-11T06:54:56.401Z,82.65
2018-04-11T06:56:06.569Z,82.94
2018-04-11T06:57:16.754Z,82.94
2018-04-11T06:58:26.681Z,82.75
2018-04-11T06:59:36.929Z,81.79
2018-04-11T07:00:47.230Z,81.89
2018-04-11T07:01:57.378Z,81.74
2018-04-11T07:03:07.353Z,81.65
2018-04-11T07:04:17.513Z,81.16
2018-04-11T07:05:27.663Z,81.26
2018-04-11T07:06:37.873Z,81.45
2018-04-11T07:07:48.059Z,80.59
2018-04-11T07:08:58.254Z,80.69
2018-04-11T07:10:08.453Z,80.5
2018-04-11T07:11:18.646Z,80.88
2018-04-11T07:12:30.127Z,80.98
2018-04-11T07:13:40.277Z,81.16
2018-04-11T07:14:50.429Z,80.59
2018-04-11T07:16:00.583Z,80.3
2018-04-11T07:17:10.718Z,80.59
2018-04-11T07:18:20.897Z,80.88
2018-04-11T07:19:31.178Z,80.5
2018-04-11T07:20:41.073Z,80.3
2018-04-11T07:21:51.250Z,80.44
2018-04-11T07:23:01.416Z,79.96
2018-04-11T07:24:11.593Z,79.96
2018-04-11T07:26:34.737Z,80.16
2018-04-11T07:27:44.884Z,79.81
2018-04-11T07:28:55.069Z,79.14
2018-04-11T07:30:05.245Z,78.76
2018-04-11T07:31:17.086Z,78.76
2018-04-11T07:32:27.257Z,78.47
2018-04-11T07:34:48.895Z,78.47
2018-04-11T07:35:58.833Z,78.86
2018-04-11T07:37:12.670Z,78.86
2018-04-11T07:38:22.845Z,78.76
2018-04-11T07:40:47.954Z,78.38
2018-04-11T07:41:58.181Z,77.84
2018-04-11T07:43:41.523Z,76.98
2018-04-11T07:46:08.079Z,76.89
2018-04-11T07:47:21.886Z,76.79
2018-04-11T07:48:32.083Z,76.54
2018-04-11T07:49:42.251Z,76.06
2018-04-11T07:50:52.409Z,75.68
2018-04-11T07:52:02.564Z,75.29
2018-04-11T07:53:12.753Z,75.48
2018-04-11T07:54:22.901Z,75.23
2018-04-11T07:55:33.170Z,75.33
2018-04-11T07:56:43.329Z,74.82
2018-04-11T07:57:53.545Z,74.62
2018-04-11T07:59:03.716Z,74.82
2018-04-11T08:00:13.888Z,74.62
2018-04-11T08:01:24.156Z,74.82
2018-04-11T08:03:49.895Z,74.91
2018-04-11T08:05:00.082Z,74.82
2018-04-11T08:06:10.863Z,74.91
2018-04-11T08:09:53.452Z,74.37
2018-04-11T08:11:03.829Z,74.05
2018-04-11T08:12:14.101Z,74.05
2018-04-11T08:13:24.282Z,74.33
2018-04-11T08:14:34.452Z,74.33
2018-04-11T08:15:44.652Z,74.62
2018-04-11T08:16:54.846Z,74.15
2018-04-11T08:18:04.992Z,73.51
2018-04-11T08:19:15.234Z,72.88
2018-04-11T08:20:25.416Z,71.76
2018-04-11T08:21:35.594Z,71.31
2018-04-11T08:22:45.770Z,70.07
2018-04-11T08:23:55.932Z,69.68
2018-04-11T08:25:06.182Z,68.95
2018-04-11T08:26:16.341Z,68.31
2018-04-11T08:27:26.580Z,66.61
2018-04-11T08:28:36.802Z,66.27
2018-04-11T08:29:47.033Z,66.71
2018-04-11T08:30:57.356Z,66.33
2018-04-11T08:32:07.500Z,66.14
2018-04-11T08:33:17.660Z,65.56
2018-04-11T08:34:27.906Z,64.66
2018-04-11T08:35:38.059Z,63.44
2018-04-11T08:36:48.309Z,61.93
2018-04-11T08:37:58.548Z,60.32
2018-04-11T08:39:08.450Z,59.32
2018-04-11T08:40:18.618Z,58.77
2018-04-11T08:41:28.798Z,58.19
2018-04-11T08:42:38.978Z,56.1
2018-04-11T08:43:49.169Z,54.49
2018-04-11T08:44:59.329Z,55.07
2018-04-11T08:46:09.636Z,54.8
2018-04-11T08:47:19.868Z,53.35
2018-04-11T08:48:29.889Z,52.51
2018-04-11T08:49:40.042Z,52.99
2018-04-11T08:50:50.206Z,52.8
2018-04-11T08:52:00.376Z,52.8
2018-04-11T08:53:10.508Z,53.16
2018-04-11T08:54:20.446Z,53.81
2018-04-11T08:55:30.618Z,53.52
2018-04-11T08:56:40.812Z,53.39
2018-04-11T08:57:50.990Z,54.17
2018-04-11T08:59:01.165Z,54.33
2018-04-11T09:00:11.402Z,54.88
2018-04-11T09:01:21.562Z,55.05
2018-04-11T09:02:31.747Z,54.98
2018-04-11T09:03:41.954Z,55.54
2018-04-11T09:04:51.856Z,55.51
2018-04-11T09:06:02.020Z,55.63
2018-04-11T09:07:12.156Z,55.6
2018-04-11T09:08:22.462Z,55.05
2018-04-11T09:09:32.639Z,54.6
2018-04-11T09:10:42.861Z,53.56
2018-04-11T09:11:53.114Z,52.53
2018-04-11T09:13:03.293Z,52.07
2018-04-11T09:14:14.974Z,52.75
2018-04-11T09:15:29.361Z,52.91
2018-04-11T09:16:41.982Z,53.01
2018-04-11T09:17:53.400Z,53.85
2018-04-11T09:19:05.930Z,54.43
2018-04-11T09:20:21.065Z,54.69
2018-04-11T09:22:46.819Z,54.96
2018-04-11T09:23:57.020Z,55.12
2018-04-11T09:25:07.219Z,55.6
2018-04-11T09:26:17.390Z,55.87
2018-04-11T09:27:27.568Z,56.9
2018-04-11T09:28:37.719Z,57.67
2018-04-11T09:29:47.879Z,58.12
2018-04-11T09:30:58.044Z,58.4
2018-04-11T09:32:08.245Z,58.7
2018-04-11T09:33:18.514Z,59.15
2018-04-11T09:34:29.720Z,59.44
2018-04-11T09:35:39.897Z,59.44
2018-04-11T09:36:50.073Z,59.24
2018-04-11T09:38:00.001Z,59.44
2018-04-11T09:39:10.159Z,59.56
2018-04-11T09:40:20.128Z,59.94
2018-04-11T09:41:30.326Z,59.75
2018-04-11T09:42:40.515Z,59.56
2018-04-11T09:43:50.740Z,59.27
2018-04-11T09:45:00.946Z,59.66
2018-04-11T09:46:11.097Z,59.75
2018-04-11T09:47:21.275Z,59.75
2018-04-11T09:48:31.464Z,59.66
2018-04-11T09:49:41.650Z,60.11
2018-04-11T09:50:51.812Z,60.39
2018-04-11T09:52:02.053Z,60.49
2018-04-11T09:53:12.209Z,60.59
2018-04-11T09:54:22.112Z,60.39
2018-04-11T09:55:32.294Z,60.39
2018-04-11T09:56:42.451Z,60.78
2018-04-11T09:57:52.632Z,60.14
2018-04-11T09:59:02.790Z,59.49
2018-04-11T10:00:12.956Z,58.95
2018-04-11T10:01:23.153Z,58.4
2018-04-11T10:02:33.313Z,58.2
2018-04-11T10:03:43.520Z,57.37
2018-04-11T10:04:53.672Z,57.56
2018-04-11T10:06:03.840Z,57.56
2018-04-11T10:07:14.001Z,57.14
2018-04-11T10:08:24.181Z,57.05
2018-04-11T10:09:34.401Z,57.05
2018-04-11T10:10:44.306Z,57.6
2018-04-11T10:11:53.919Z,57.89
2018-04-11T10:13:04.069Z,58.53
2018-04-11T10:14:14.024Z,58.72
2018-04-11T10:16:39.047Z,58.72
2018-04-11T10:17:51.171Z,59.11
2018-04-11T10:19:01.130Z,59.47
2018-04-11T10:20:11.511Z,59.47
2018-04-11T10:21:21.713Z,59.08
2018-04-11T10:22:32.487Z,58.72
2018-04-11T10:24:57.185Z,57.53
2018-04-11T10:27:23.829Z,57.05
2018-04-11T10:28:34.015Z,56.59
2018-04-11T10:29:44.266Z,56.59
2018-04-11T10:30:54.466Z,56.37
2018-04-11T10:32:04.289Z,56.79
2018-04-11T10:33:14.461Z,56.76
2018-04-11T10:34:24.690Z,56.66
2018-04-11T10:35:34.869Z,57.31
2018-04-11T10:36:45.299Z,57.5
2018-04-11T10:37:54.960Z,57.6
2018-04-11T10:39:05.129Z,57.5
2018-04-11T10:40:15.268Z,57.12
2018-04-11T10:41:25.204Z,57.43
2018-04-11T10:42:35.393Z,56.76
2018-04-11T10:43:45.591Z,56.95
2018-04-11T10:44:55.764Z,56.79
2018-04-11T10:46:05.943Z,55.82
2018-04-11T10:47:16.252Z,55.46
2018-04-11T10:48:26.468Z,54.62
2018-04-11T10:49:36.692Z,54.82
2018-04-11T10:50:46.873Z,55.27
2018-04-11T10:51:57.908Z,55.18
2018-04-11T10:53:12.641Z,55.49
2018-04-11T10:54:26.653Z,55.56
2018-04-11T10:55:40.731Z,55.27
2018-04-11T10:56:53.514Z,55.56
2018-04-11T10:58:04.133Z,55.76
2018-04-11T10:59:15.931Z,56.49
2018-04-11T11:00:26.245Z,56.66
2018-04-11T11:01:36.463Z,56.95
2018-04-11T11:02:46.619Z,57.89
2018-04-11T11:03:56.855Z,57.5
2018-04-11T11:05:07.032Z,58.17
2018-04-11T11:06:17.343Z,58.37
2018-04-11T11:07:27.655Z,58.95
2018-04-11T11:08:37.838Z,58.82
2018-04-11T11:09:48.126Z,58.82
2018-04-11T11:10:58.337Z,59.49
2018-04-11T11:12:08.477Z,59.3
2018-04-11T11:13:18.665Z,59.78
2018-04-11T11:14:28.878Z,59.75
2018-04-11T11:15:39.044Z,60.17
2018-04-11T11:16:49.346Z,60.42
2018-04-11T11:17:59.536Z,60.52
2018-04-11T11:19:09.709Z,60.36
2018-04-11T11:20:19.894Z,60.27
2018-04-11T11:21:30.066Z,60.27
2018-04-11T11:22:40.319Z,60.55
2018-04-11T11:23:50.536Z,60.55
2018-04-11T11:25:00.825Z,60.52
2018-04-11T11:26:11.076Z,60.72
2018-04-11T11:27:21.348Z,60.62
2018-04-11T11:28:31.518Z,60.81
2018-04-11T11:29:41.400Z,61
2018-04-11T11:30:51.596Z,61
2018-04-11T11:32:01.767Z,61
2018-04-11T11:33:11.916Z,60.91
2018-04-11T11:34:22.193Z,61.04
2018-04-11T11:35:32.393Z,61.32
2018-04-11T11:36:42.563Z,61.13
2018-04-11T11:37:52.764Z,61.04
2018-04-11T11:39:02.958Z,60.84
2018-04-11T11:40:13.132Z,60.75
2018-04-11T11:41:23.306Z,61.04
2018-04-11T11:42:33.468Z,60.55
2018-04-11T11:43:43.653Z,60.55
2018-04-11T11:44:53.820Z,60.49
2018-04-11T11:46:03.639Z,60.39
2018-04-11T11:47:13.813Z,60
2018-04-11T11:48:24.023Z,59.81
2018-04-11T11:49:34.272Z,60.2
2018-04-11T11:50:44.494Z,60.1
2018-04-11T11:51:54.694Z,60.3
2018-04-11T11:53:04.918Z,60.39
2018-04-11T11:54:15.102Z,60.2
2018-04-11T11:55:25.293Z,60.39
2018-04-11T11:56:35.466Z,60.17
2018-04-11T11:57:45.631Z,60.58
2018-04-11T11:58:55.929Z,60.1
2018-04-11T12:00:06.108Z,60.2
2018-04-11T12:01:16.283Z,60.3
2018-04-11T12:02:26.518Z,59.81
2018-04-11T12:03:36.700Z,59.72
2018-04-11T12:04:46.872Z,59.52
2018-04-11T12:05:57.097Z,59.62
2018-04-11T12:07:07.259Z,59.62
2018-04-11T12:08:17.466Z,59.81
2018-04-11T12:09:27.714Z,59.33
2018-04-11T12:10:37.956Z,58.47
2018-04-11T12:11:48.156Z,58.4
2018-04-11T12:12:57.834Z,57.34
2018-04-11T12:14:08.007Z,57.37
2018-04-11T12:15:18.277Z,57.37
2018-04-11T12:16:28.829Z,57.1
2018-04-11T12:17:38.785Z,56.72
2018-04-11T12:18:49.065Z,57.2
2018-04-11T12:19:59.323Z,57.1
2018-04-11T12:21:09.589Z,56.72
2018-04-11T12:22:19.781Z,56.33
2018-04-11T12:23:30.011Z,56.72
2018-04-11T12:24:40.235Z,56.52
2018-04-11T12:25:51.355Z,56.24
2018-04-11T12:27:01.633Z,55.94
2018-04-11T12:28:11.841Z,55.59
2018-04-11T12:29:22.024Z,55.66
2018-04-11T12:30:32.278Z,55.94
2018-04-11T12:31:42.472Z,55.94
2018-04-11T12:32:52.677Z,56.04
2018-04-11T12:34:02.835Z,55.85
2018-04-11T12:37:53.541Z,54.31
2018-04-11T12:39:03.690Z,54.69
2018-04-11T12:40:13.957Z,54.5
2018-04-11T12:41:24.216Z,54.28
2018-04-11T12:42:34.422Z,53.51
2018-04-11T12:43:44.392Z,53.7
2018-04-11T12:44:54.573Z,53.58
2018-04-11T12:46:05.060Z,53.48
2018-04-11T12:47:15.306Z,53.67
2018-04-11T12:48:25.486Z,54.06
2018-04-11T12:49:35.660Z,54.13
2018-04-11T12:50:45.882Z,54.22
2018-04-11T12:51:56.194Z,54.22
2018-04-11T12:53:06.373Z,54.42
2018-04-11T12:54:16.139Z,54.42
2018-04-11T12:55:26.373Z,54.42
2018-04-11T12:56:36.645Z,54.8
2018-04-11T12:57:46.856Z,54.8
2018-04-11T12:58:57.070Z,54.9
2018-04-11T13:00:07.260Z,54.8
2018-04-11T13:01:17.177Z,54.52
2018-04-11T13:02:27.039Z,54.71
2018-04-11T13:03:37.008Z,54.71
2018-04-11T13:04:47.184Z,54.52
2018-04-11T13:05:57.471Z,54.44
2018-04-11T13:07:07.724Z,54.54
2018-04-11T13:08:17.901Z,53.89
2018-04-11T13:09:28.139Z,53.15
2018-04-11T13:11:10.876Z,52.95
2018-04-11T13:12:21.064Z,53.05
2018-04-11T13:13:31.308Z,53.05
2018-04-11T13:14:41.526Z,52.86
2018-04-11T13:15:51.717Z,52.89
2018-04-11T13:17:01.920Z,52.59
2018-04-11T13:18:12.090Z,52.69
2018-04-11T13:19:23.508Z,52.11
2018-04-11T13:20:33.741Z,51.92
2018-04-11T13:21:43.984Z,51.8
2018-04-11T13:22:54.163Z,51.89
2018-04-11T13:24:04.443Z,52.09
2018-04-11T13:25:14.435Z,52.45
2018-04-11T13:26:24.689Z,52.91
2018-04-11T13:27:35.010Z,53
2018-04-11T13:28:45.285Z,53
2018-04-11T13:29:55.128Z,53
2018-04-11T13:31:05.323Z,52.81
2018-04-11T13:32:15.492Z,52.71
2018-04-11T13:33:25.718Z,52.71
2018-04-11T13:34:35.651Z,53
2018-04-11T13:35:45.816Z,53
2018-04-11T13:36:56.010Z,52.81
2018-04-11T13:38:06.226Z,52.81
2018-04-11T13:39:16.413Z,53.03
2018-04-11T13:40:26.607Z,53.03
2018-04-11T13:41:36.857Z,52.73
2018-04-11T13:42:47.065Z,52.06
2018-04-11T13:43:57.224Z,51.48
2018-04-11T13:45:07.431Z,51.58
2018-04-11T13:46:17.619Z,51.87
2018-04-11T13:47:27.795Z,51.87
2018-04-11T13:48:38.243Z,51.48
2018-04-11T13:49:48.423Z,51.58
2018-04-11T13:50:58.619Z,51.29
2018-04-11T13:52:08.790Z,51.51
2018-04-11T13:53:18.983Z,51.03
2018-04-11T13:54:28.864Z,51.12
2018-04-11T13:55:39.066Z,50.64
2018-04-11T13:56:49.263Z,51.89
2018-04-11T13:57:59.473Z,53.34
2018-04-11T13:59:09.691Z,54.31
2018-04-11T14:00:19.890Z,54.28
2018-04-11T14:01:29.816Z,55.24
2018-04-11T14:02:40.030Z,55.31
2018-04-11T14:03:50.200Z,55.51
2018-04-11T14:05:00.370Z,56.18
2018-04-11T14:06:10.562Z,56.73
2018-04-11T14:07:20.769Z,57.02
2018-04-11T14:08:30.695Z,57.12
2018-04-11T14:09:40.866Z,57.95
2018-04-11T14:10:51.184Z,58.24
2018-04-11T14:12:01.150Z,59.3
2018-04-11T14:13:11.310Z,59.85
2018-04-11T14:14:21.630Z,59.94
2018-04-11T14:15:32.043Z,60.33
2018-04-11T14:16:42.280Z,60.52
2018-04-11T14:17:52.477Z,60.91
2018-04-11T14:19:02.681Z,61.07
2018-04-11T14:20:12.853Z,61.26
2018-04-11T14:21:23.028Z,61.46
2018-04-11T14:22:33.224Z,62.13
2018-04-11T14:23:43.424Z,61.84
2018-04-11T14:24:53.581Z,61.84
2018-04-11T14:26:03.762Z,62.32
2018-04-11T14:27:14.048Z,62.51
2018-04-11T14:28:24.216Z,62.51
2018-04-11T14:29:34.532Z,62.41
2018-04-11T14:30:44.741Z,62.8
2018-04-11T14:31:54.745Z,63.09
2018-04-11T14:33:04.932Z,63.57
2018-04-11T14:34:15.169Z,63.18
2018-04-11T14:35:25.559Z,63.18
2018-04-11T14:36:35.773Z,63.48
2018-04-11T14:37:45.727Z,63.09
2018-04-11T14:38:55.886Z,63.48
2018-04-11T14:40:06.106Z,63.48
2018-04-11T14:41:16.313Z,63.57
2018-04-11T14:42:26.504Z,63.35
2018-04-11T14:43:36.703Z,63.48
2018-04-11T14:44:46.885Z,63.57
2018-04-11T14:45:57.093Z,63.67
2018-04-11T14:47:07.300Z,63.95
2018-04-11T14:48:17.501Z,64.53
2018-04-11T14:49:27.701Z,64.53
2018-04-11T14:50:37.935Z,64.34
2018-04-11T14:51:48.093Z,64.43
2018-04-11T14:52:58.275Z,64.34
2018-04-11T14:54:08.772Z,64.63
2018-04-11T14:55:19.318Z,64.25
2018-04-11T14:56:29.563Z,65.11
2018-04-11T14:57:39.711Z,64.34
2018-04-11T14:58:49.916Z,64.15
2018-04-11T15:00:00.306Z,64.43
2018-04-11T15:01:10.637Z,64.82
2018-04-11T15:02:20.849Z,65.2
2018-04-11T15:03:31.089Z,65.5
2018-04-11T15:04:41.042Z,65.59
2018-04-11T15:05:51.305Z,65.59
2018-04-11T15:07:01.527Z,65.94
2018-04-11T15:08:11.731Z,66.55
2018-04-11T15:09:21.701Z,66.04
2018-04-11T15:10:31.634Z,66.14
2018-04-11T15:11:42.754Z,66.52
2018-04-11T15:12:52.843Z,67.1
2018-04-11T15:14:03.086Z,66.61
2018-04-11T15:15:13.266Z,66.91
2018-04-11T15:16:23.466Z,66.61
2018-04-11T15:17:33.668Z,67.19
2018-04-11T15:18:43.656Z,66.71
2018-04-11T15:19:53.585Z,66.91
2018-04-11T15:21:03.768Z,66.61
2018-04-11T15:22:14.014Z,66.61
2018-04-11T15:23:24.203Z,66.33
2018-04-11T15:24:34.394Z,66.33
2018-04-11T15:25:44.612Z,66.42
2018-04-11T15:26:54.800Z,66.61